Sucre, Bolivia
Current Conditions -  °F | °C
As of 12:00 AM on Thursday 27 Nov 2014 (Local Time) from SLCB Reporting Station
Broken Clouds Broken Clouds  
Wind Chill: 64°   Ceiling: 20000
Heat Index: 64°   Visibility: 6mi
Dew Point: 46°   Wind: 5mph
Humidity: 52%   Direction: 180°S
Pressure: 30.27"   Gusts: NA
Location:  19.06°S, 65.26°W
Report Text: SLCB 270400Z 18004KT 9999 FEW027 SCT070 BKN200 18/08 Q1025
Loading
Personal Weather Stations






























Interactive Weather Map New forecast layout! Learn more

10-Day Weather Forecast

Advertisements
Track Severe Weather on mobile